createdAt,value
2022-07-31T00:01:15.270Z,6.03
2022-07-31T00:03:46.942Z,5.05
2022-07-31T00:08:44.966Z,5.10
2022-07-31T00:11:14.299Z,5.57
2022-07-31T00:13:57.554Z,5.22
2022-07-31T00:16:27.853Z,7.15
2022-07-31T00:18:58.984Z,5.30
2022-07-31T00:21:28.563Z,8.32
2022-07-31T00:23:57.836Z,7.25
2022-07-31T00:26:27.477Z,8.45
2022-07-31T00:28:56.949Z,8.15
2022-07-31T00:31:26.312Z,6.80
2022-07-31T00:33:56.078Z,7.00
2022-07-31T00:36:29.984Z,6.70
2022-07-31T00:39:01.951Z,8.27
2022-07-31T00:41:46.181Z,8.95
2022-07-31T00:44:16.439Z,6.03
2022-07-31T00:46:47.730Z,6.38
2022-07-31T00:49:18.578Z,10.13
2022-07-31T00:51:50.068Z,6.28
2022-07-31T00:54:22.524Z,6.50
2022-07-31T00:56:52.261Z,7.78
2022-07-31T00:59:24.431Z,7.13
2022-07-31T01:01:54.865Z,9.23
2022-07-31T01:04:25.800Z,7.55
2022-07-31T01:06:58.703Z,7.15
2022-07-31T01:09:27.977Z,9.98
2022-07-31T01:12:03.085Z,9.98
2022-07-31T01:14:38.790Z,9.05
2022-07-31T01:17:10.285Z,9.75
2022-07-31T01:19:43.527Z,6.13
2022-07-31T01:22:47.453Z,7.40
2022-07-31T01:25:25.583Z,10.13
2022-07-31T01:28:56.621Z,7.50
2022-07-31T01:31:32.598Z,8.27
2022-07-31T01:34:05.648Z,7.00
2022-07-31T01:36:38.519Z,6.60
2022-07-31T01:39:10.096Z,5.63
2022-07-31T01:41:48.012Z,6.55
2022-07-31T01:44:20.643Z,6.25
2022-07-31T01:46:52.922Z,10.48
2022-07-31T01:49:24.922Z,8.05
2022-07-31T01:51:55.311Z,8.35
2022-07-31T01:54:35.727Z,10.18
2022-07-31T01:57:06.067Z,9.27
2022-07-31T01:59:42.537Z,6.18
2022-07-31T02:02:26.615Z,6.25
2022-07-31T02:04:59.150Z,7.85
2022-07-31T02:07:30.194Z,8.20
2022-07-31T02:10:00.528Z,8.32
2022-07-31T02:12:36.786Z,6.53
2022-07-31T02:15:08.765Z,6.97
2022-07-31T02:17:45.921Z,6.18
2022-07-31T02:20:26.646Z,7.07
2022-07-31T02:22:58.658Z,7.00
2022-07-31T02:25:28.601Z,6.55
2022-07-31T02:28:00.223Z,9.20
2022-07-31T02:30:38.643Z,9.47
2022-07-31T02:33:19.814Z,9.05
2022-07-31T02:35:52.470Z,7.47
2022-07-31T02:38:24.118Z,5.50
2022-07-31T02:41:04.647Z,9.60
2022-07-31T02:43:35.953Z,6.18
2022-07-31T02:46:16.144Z,7.65
2022-07-31T02:48:49.050Z,7.57
2022-07-31T02:51:18.666Z,7.45
2022-07-31T02:53:48.901Z,9.23
2022-07-31T02:56:20.016Z,8.57
2022-07-31T02:58:49.801Z,5.85
2022-07-31T03:01:26.769Z,8.57
2022-07-31T03:04:00.007Z,5.82
2022-07-31T03:06:31.060Z,6.57
2022-07-31T03:09:01.197Z,8.40
2022-07-31T03:11:32.613Z,6.50
2022-07-31T03:14:05.030Z,7.07
2022-07-31T03:16:36.286Z,8.75
2022-07-31T03:19:09.446Z,14.13
2022-07-31T03:21:39.337Z,10.27
2022-07-31T03:24:11.514Z,14.85
2022-07-31T03:26:41.284Z,11.38
2022-07-31T03:29:39.046Z,9.77
2022-07-31T03:32:00.557Z,11.30
2022-07-31T03:34:32.411Z,8.93
2022-07-31T03:37:01.726Z,12.02
2022-07-31T03:39:30.937Z,11.90
2022-07-31T03:42:05.089Z,13.27
2022-07-31T03:44:35.850Z,10.57
2022-07-31T03:47:05.766Z,8.98
2022-07-31T03:49:40.317Z,14.02
2022-07-31T03:52:12.190Z,9.43
2022-07-31T03:54:42.280Z,11.15
2022-07-31T03:57:22.026Z,16.90
2022-07-31T03:59:59.435Z,8.50
2022-07-31T04:02:31.821Z,9.90
2022-07-31T04:05:24.007Z,6.35
2022-07-31T04:07:53.550Z,7.32
2022-07-31T04:10:23.991Z,8.75
2022-07-31T04:12:53.548Z,7.93
2022-07-31T04:15:22.878Z,11.88
2022-07-31T04:17:52.270Z,11.18
2022-07-31T04:20:28.518Z,9.13
2022-07-31T04:22:58.367Z,6.97
2022-07-31T04:25:46.159Z,7.75
2022-07-31T04:28:26.897Z,6.88
2022-07-31T04:30:56.263Z,5.05
2022-07-31T04:33:25.593Z,7.28
2022-07-31T04:35:57.336Z,4.88
2022-07-31T04:38:29.115Z,9.10
2022-07-31T04:40:59.153Z,7.75
2022-07-31T04:43:29.723Z,4.63
2022-07-31T04:45:59.767Z,6.32
2022-07-31T04:48:29.266Z,4.53
2022-07-31T04:51:01.514Z,5.93
2022-07-31T04:53:30.753Z,6.43
2022-07-31T04:56:13.287Z,2.72
2022-07-31T04:58:42.543Z,4.07
2022-07-31T05:01:12.796Z,3.45
2022-07-31T05:03:46.197Z,4.60
2022-07-31T05:06:18.032Z,5.10
2022-07-31T05:08:47.643Z,2.80
2022-07-31T05:11:26.005Z,5.57
2022-07-31T05:13:58.297Z,3.10
2022-07-31T05:16:29.058Z,3.40
2022-07-31T05:18:59.579Z,6.50
2022-07-31T05:22:02.582Z,1.67
2022-07-31T05:25:05.678Z,2.33
2022-07-31T05:27:38.968Z,3.88
2022-07-31T05:30:12.598Z,2.88
2022-07-31T05:32:42.864Z,2.78
2022-07-31T05:35:12.067Z,3.63
2022-07-31T05:40:15.465Z,3.55
2022-07-31T05:43:03.494Z,2.10
2022-07-31T05:46:07.962Z,4.60
2022-07-31T05:48:37.267Z,3.47
2022-07-31T05:51:10.738Z,3.15
2022-07-31T05:53:45.742Z,2.78
2022-07-31T05:56:50.279Z,2.08
2022-07-31T05:59:24.752Z,1.55
2022-07-31T06:01:55.272Z,3.17
2022-07-31T06:04:25.075Z,2.88
2022-07-31T06:06:54.304Z,1.77
2022-07-31T06:09:25.461Z,3.67
2022-07-31T06:11:55.344Z,4.72
2022-07-31T06:14:24.532Z,0.75
2022-07-31T06:17:17.071Z,0.63
2022-07-31T06:19:48.168Z,0.98
2022-07-31T06:22:17.894Z,3.67
2022-07-31T06:24:49.088Z,1.30
2022-07-31T06:27:33.801Z,1.45
2022-07-31T06:30:05.475Z,1.88
2022-07-31T06:32:34.838Z,1.02
2022-07-31T06:35:06.424Z,0.90
2022-07-31T06:37:46.937Z,0.85
2022-07-31T06:40:18.125Z,1.92
2022-07-31T06:43:06.984Z,3.00
2022-07-31T06:45:56.741Z,1.88
2022-07-31T06:48:46.339Z,2.28
2022-07-31T06:51:30.183Z,2.95
2022-07-31T06:54:00.377Z,3.00
2022-07-31T06:56:32.366Z,1.45
2022-07-31T06:59:02.134Z,1.83
2022-07-31T07:01:31.879Z,3.10
2022-07-31T07:04:01.548Z,3.85
2022-07-31T07:06:31.287Z,3.13
2022-07-31T07:09:01.009Z,2.47
2022-07-31T07:11:32.860Z,1.80
2022-07-31T07:16:33.621Z,1.20
2022-07-31T07:19:03.073Z,1.10
2022-07-31T07:21:32.600Z,1.73
2022-07-31T07:24:04.244Z,6.38
2022-07-31T07:26:43.725Z,3.17
2022-07-31T07:29:13.012Z,1.55
2022-07-31T07:31:43.251Z,5.38
2022-07-31T07:34:13.542Z,1.85
2022-07-31T07:36:43.890Z,2.85
2022-07-31T07:39:23.693Z,3.42
2022-07-31T07:41:55.590Z,2.58
2022-07-31T07:46:54.617Z,2.88
2022-07-31T07:49:24.313Z,1.15
2022-07-31T07:52:09.810Z,3.33
2022-07-31T07:54:42.824Z,1.23
2022-07-31T07:57:26.314Z,1.67
2022-07-31T08:00:10.486Z,1.65
2022-07-31T08:03:47.647Z,2.42
2022-07-31T08:05:40.244Z,1.90
2022-07-31T08:08:09.488Z,1.45
2022-07-31T08:11:04.464Z,2.85
2022-07-31T08:13:51.056Z,3.50
2022-07-31T08:16:39.180Z,2.83
2022-07-31T08:19:09.394Z,2.58
2022-07-31T08:21:38.869Z,2.63
2022-07-31T08:24:10.696Z,3.45
2022-07-31T08:26:54.335Z,3.63
2022-07-31T08:29:28.845Z,3.92
2022-07-31T08:32:16.424Z,3.23
2022-07-31T08:35:04.305Z,3.22
2022-07-31T08:37:59.155Z,3.90
2022-07-31T08:42:56.320Z,2.35
2022-07-31T08:45:36.357Z,2.13
2022-07-31T08:48:25.837Z,3.55
2022-07-31T08:50:56.355Z,6.20
2022-07-31T08:53:45.782Z,3.38
2022-07-31T08:56:21.446Z,4.40
2022-07-31T08:58:50.722Z,5.03
2022-07-31T09:01:22.241Z,6.78
2022-07-31T09:03:51.802Z,4.28
2022-07-31T09:06:21.110Z,4.32
2022-07-31T09:08:50.407Z,11.65
2022-07-31T09:11:21.861Z,3.40
2022-07-31T09:14:03.735Z,3.25
2022-07-31T09:16:57.438Z,9.63
2022-07-31T09:19:52.217Z,5.25
2022-07-31T09:22:33.470Z,5.50
2022-07-31T09:25:11.626Z,3.47
2022-07-31T09:27:41.134Z,5.03
2022-07-31T09:30:11.824Z,5.25
2022-07-31T09:33:19.490Z,7.18
2022-07-31T09:36:17.513Z,4.18
2022-07-31T09:38:51.434Z,4.97
2022-07-31T09:41:57.934Z,3.38
2022-07-31T09:44:50.874Z,4.82
2022-07-31T09:47:26.528Z,4.40
2022-07-31T09:50:00.668Z,8.30
2022-07-31T09:52:33.761Z,4.93
2022-07-31T09:55:15.815Z,4.63
2022-07-31T09:57:54.862Z,6.00
2022-07-31T10:00:26.536Z,3.88
2022-07-31T10:02:59.049Z,6.53
2022-07-31T10:05:31.520Z,8.48
2022-07-31T10:08:04.172Z,9.02
2022-07-31T10:10:53.669Z,6.68
2022-07-31T10:13:29.454Z,8.18
2022-07-31T10:16:02.306Z,3.42
2022-07-31T10:18:55.121Z,5.85
2022-07-31T10:21:49.720Z,4.05
2022-07-31T10:27:03.911Z,2.70
2022-07-31T10:29:41.780Z,4.72
2022-07-31T10:34:58.823Z,3.60
2022-07-31T10:37:56.322Z,4.15
2022-07-31T10:40:55.902Z,7.85
2022-07-31T10:43:30.841Z,9.00
2022-07-31T10:46:29.424Z,3.55
2022-07-31T10:49:15.941Z,5.00
2022-07-31T10:52:00.259Z,6.43
2022-07-31T10:54:50.075Z,6.35
2022-07-31T10:57:57.162Z,5.00
2022-07-31T11:01:08.753Z,4.07
2022-07-31T11:03:46.804Z,6.82
2022-07-31T11:06:24.494Z,6.20
2022-07-31T11:08:57.032Z,4.07
2022-07-31T11:12:04.127Z,2.45
2022-07-31T11:14:44.731Z,3.13
2022-07-31T11:18:23.266Z,5.13
2022-07-31T11:20:30.514Z,4.30
2022-07-31T11:23:02.827Z,3.88
2022-07-31T11:25:34.675Z,5.38
2022-07-31T11:28:18.226Z,5.53
2022-07-31T11:30:51.895Z,5.00
2022-07-31T11:33:42.206Z,2.90
2022-07-31T11:36:16.878Z,2.58
2022-07-31T11:38:47.621Z,3.40
2022-07-31T11:41:17.452Z,3.45
2022-07-31T11:43:57.025Z,5.10
2022-07-31T11:46:34.973Z,5.35
2022-07-31T11:49:06.762Z,3.92
2022-07-31T11:51:40.296Z,5.70
2022-07-31T11:54:26.368Z,3.55
2022-07-31T11:56:56.846Z,2.15
2022-07-31T11:59:45.620Z,7.18
2022-07-31T12:02:17.300Z,8.20
2022-07-31T12:04:46.597Z,5.93
2022-07-31T12:07:16.486Z,5.40
2022-07-31T12:10:01.849Z,3.25
2022-07-31T12:12:35.474Z,5.95
2022-07-31T12:15:16.413Z,3.47
2022-07-31T12:17:46.921Z,6.72
2022-07-31T12:20:34.340Z,4.77
2022-07-31T12:23:06.142Z,3.25
2022-07-31T12:25:46.579Z,6.30
2022-07-31T12:28:19.414Z,5.10
2022-07-31T12:31:01.010Z,3.33
2022-07-31T12:33:30.396Z,4.38
2022-07-31T12:35:59.885Z,3.03
2022-07-31T12:38:48.350Z,8.30
2022-07-31T12:41:18.739Z,3.38
2022-07-31T12:43:51.663Z,21.83
2022-07-31T12:46:36.833Z,4.25
2022-07-31T12:49:07.881Z,4.30
2022-07-31T12:57:51.246Z,3.53
2022-07-31T13:00:22.358Z,3.33
2022-07-31T13:02:52.435Z,2.70
2022-07-31T13:05:22.196Z,2.45
2022-07-31T13:07:52.074Z,3.25
2022-07-31T13:10:24.839Z,5.00
2022-07-31T13:12:56.852Z,3.28
2022-07-31T13:17:58.897Z,4.28
2022-07-31T13:20:30.637Z,3.25
2022-07-31T13:23:02.321Z,3.25
2022-07-31T13:25:32.698Z,5.43
2022-07-31T13:28:03.960Z,3.72
2022-07-31T13:33:02.258Z,3.90
2022-07-31T13:35:31.617Z,4.20
2022-07-31T13:38:01.032Z,4.15
2022-07-31T13:40:43.363Z,4.38
2022-07-31T13:43:15.388Z,8.38
2022-07-31T13:45:45.773Z,7.15
2022-07-31T13:48:15.148Z,5.73
2022-07-31T13:50:44.889Z,4.05
2022-07-31T13:53:14.109Z,4.85
2022-07-31T13:55:46.060Z,5.35
2022-07-31T13:58:21.039Z,8.15
2022-07-31T14:03:21.310Z,4.68
2022-07-31T14:05:51.629Z,5.82
2022-07-31T14:08:33.093Z,3.47
2022-07-31T14:11:14.971Z,3.67
2022-07-31T14:13:46.569Z,4.05
2022-07-31T14:16:15.842Z,1.92
2022-07-31T14:18:45.007Z,6.28
2022-07-31T14:21:16.455Z,5.30
2022-07-31T14:23:47.031Z,3.95
2022-07-31T14:26:16.419Z,5.72
2022-07-31T14:28:49.124Z,10.20
2022-07-31T14:31:18.973Z,5.55
2022-07-31T14:33:48.103Z,7.57
2022-07-31T14:36:18.069Z,3.85
2022-07-31T14:38:47.332Z,3.85
2022-07-31T14:41:16.633Z,5.22
2022-07-31T14:43:47.805Z,5.60
2022-07-31T14:46:17.278Z,4.75
2022-07-31T14:48:46.600Z,5.45
2022-07-31T14:51:19.589Z,6.47
2022-07-31T14:53:50.628Z,5.57
2022-07-31T14:56:34.743Z,7.13
2022-07-31T14:59:10.826Z,4.38
2022-07-31T15:01:40.456Z,6.32
2022-07-31T15:04:10.074Z,5.85
2022-07-31T15:06:56.101Z,9.68
2022-07-31T15:09:29.422Z,6.82
2022-07-31T15:12:01.091Z,6.38
2022-07-31T15:14:33.263Z,8.55
2022-07-31T15:17:03.039Z,5.72
2022-07-31T15:19:32.505Z,3.80
2022-07-31T15:22:10.685Z,4.25
2022-07-31T15:24:48.318Z,8.63
2022-07-31T15:27:20.425Z,4.72
2022-07-31T15:30:00.366Z,6.15
2022-07-31T15:32:36.267Z,3.70
2022-07-31T15:35:06.942Z,6.97
2022-07-31T15:37:37.235Z,3.78
2022-07-31T15:40:09.455Z,7.75
2022-07-31T15:42:41.815Z,3.25
2022-07-31T15:45:16.648Z,6.43
2022-07-31T15:47:46.834Z,4.55
2022-07-31T15:50:18.880Z,6.07
2022-07-31T15:52:48.626Z,6.05
2022-07-31T15:55:18.479Z,4.93
2022-07-31T15:57:47.851Z,5.57
2022-07-31T16:00:20.948Z,6.90
2022-07-31T16:02:51.812Z,8.40
2022-07-31T16:05:37.079Z,4.25
2022-07-31T16:08:32.082Z,5.10
2022-07-31T16:11:00.836Z,5.55
2022-07-31T16:13:31.021Z,4.90
2022-07-31T16:16:02.218Z,10.55
2022-07-31T16:18:31.605Z,15.13
2022-07-31T16:21:01.129Z,7.90
2022-07-31T16:23:30.479Z,7.75
2022-07-31T16:25:59.790Z,2.58
2022-07-31T16:28:29.109Z,4.68
2022-07-31T16:30:58.382Z,3.75
2022-07-31T16:33:29.745Z,5.00
2022-07-31T16:35:59.973Z,3.92
2022-07-31T16:38:29.240Z,7.32
2022-07-31T16:40:58.454Z,6.40
2022-07-31T16:43:47.206Z,7.57
2022-07-31T16:46:18.835Z,4.22
2022-07-31T16:48:50.109Z,3.63
2022-07-31T16:51:19.703Z,4.10
2022-07-31T16:54:13.757Z,3.85
2022-07-31T16:56:39.833Z,5.15
2022-07-31T16:59:09.105Z,9.50
2022-07-31T17:01:57.395Z,8.57
2022-07-31T17:04:30.264Z,5.50
2022-07-31T17:07:00.058Z,3.80
2022-07-31T17:09:30.432Z,5.20
2022-07-31T17:11:59.831Z,6.65
2022-07-31T17:14:29.260Z,14.30
2022-07-31T17:16:58.750Z,3.20
2022-07-31T17:19:41.753Z,6.10
2022-07-31T17:22:17.848Z,3.97
2022-07-31T17:24:51.445Z,2.67
2022-07-31T17:27:22.399Z,5.50
2022-07-31T17:29:52.043Z,9.57
2022-07-31T17:32:22.813Z,5.90
2022-07-31T17:34:54.509Z,7.10
2022-07-31T17:39:56.262Z,4.28
2022-07-31T17:42:27.978Z,5.20
2022-07-31T17:44:58.501Z,5.65
2022-07-31T17:47:27.701Z,6.88
2022-07-31T17:49:58.985Z,7.22
2022-07-31T17:52:28.389Z,4.88
2022-07-31T17:54:57.630Z,9.43
2022-07-31T17:57:29.954Z,9.23
2022-07-31T17:59:59.906Z,6.47
2022-07-31T18:02:29.236Z,9.27
2022-07-31T18:05:00.722Z,9.05
2022-07-31T18:07:30.317Z,5.97
2022-07-31T18:10:00.209Z,5.25
2022-07-31T18:12:29.652Z,6.70
2022-07-31T18:15:19.175Z,6.45
2022-07-31T18:17:53.489Z,3.95
2022-07-31T18:20:25.067Z,4.03
2022-07-31T18:22:54.290Z,4.80
2022-07-31T18:25:23.465Z,5.28
2022-07-31T18:27:53.798Z,5.32
2022-07-31T18:30:22.969Z,5.00
2022-07-31T18:32:59.701Z,6.13
2022-07-31T18:35:30.914Z,4.22
2022-07-31T18:38:00.345Z,6.72
2022-07-31T18:40:29.542Z,5.55
2022-07-31T18:42:59.477Z,7.00
2022-07-31T18:45:28.835Z,5.75
2022-07-31T18:47:58.057Z,8.00
2022-07-31T18:50:58.845Z,4.38
2022-07-31T18:53:29.304Z,7.63
2022-07-31T18:55:58.582Z,5.35
2022-07-31T18:58:28.333Z,5.55
2022-07-31T19:00:57.632Z,8.95
2022-07-31T19:03:29.401Z,9.10
2022-07-31T19:06:00.858Z,7.60
2022-07-31T19:08:30.293Z,7.93
2022-07-31T19:10:59.501Z,6.30
2022-07-31T19:13:29.115Z,9.23
2022-07-31T19:15:58.452Z,8.05
2022-07-31T19:18:28.774Z,5.65
2022-07-31T19:21:21.355Z,7.57
2022-07-31T19:23:51.790Z,7.75
2022-07-31T19:26:21.850Z,5.22
2022-07-31T19:28:51.359Z,9.65
2022-07-31T19:31:20.730Z,8.10
2022-07-31T19:33:50.288Z,10.70
2022-07-31T19:36:22.028Z,5.60
2022-07-31T19:38:51.455Z,5.47
2022-07-31T19:41:21.619Z,4.75
2022-07-31T19:43:51.337Z,7.03
2022-07-31T19:46:20.599Z,6.38
2022-07-31T19:48:50.823Z,4.75
2022-07-31T19:51:22.978Z,5.97
2022-07-31T19:53:53.236Z,5.88
2022-07-31T19:56:22.414Z,8.45
2022-07-31T19:58:52.178Z,7.00
2022-07-31T20:01:21.786Z,7.40
2022-07-31T20:03:52.724Z,9.98
2022-07-31T20:06:27.318Z,4.38
2022-07-31T20:08:58.768Z,8.00
2022-07-31T20:11:28.070Z,10.85
2022-07-31T20:13:57.277Z,9.35
2022-07-31T20:16:27.174Z,7.90
2022-07-31T20:18:56.505Z,8.23
2022-07-31T20:21:27.717Z,6.75
2022-07-31T20:24:04.612Z,8.15
2022-07-31T20:26:36.101Z,8.30
2022-07-31T20:31:34.881Z,11.65
2022-07-31T20:34:04.498Z,8.98
2022-07-31T20:36:35.701Z,6.55
2022-07-31T20:39:05.509Z,7.55
2022-07-31T20:41:34.812Z,7.82
2022-07-31T20:44:04.021Z,6.75
2022-07-31T20:46:33.742Z,10.60
2022-07-31T20:49:03.016Z,6.93
2022-07-31T20:51:33.108Z,8.20
2022-07-31T20:54:04.397Z,6.05
2022-07-31T20:56:33.853Z,7.90
2022-07-31T20:59:03.157Z,9.35
2022-07-31T21:01:32.632Z,7.85
2022-07-31T21:04:03.247Z,7.95
2022-07-31T21:06:32.693Z,5.40
2022-07-31T21:09:07.730Z,10.65
2022-07-31T21:11:37.089Z,8.52
2022-07-31T21:14:06.380Z,8.80
2022-07-31T21:16:35.581Z,7.82
2022-07-31T21:19:06.283Z,9.73
2022-07-31T21:21:35.602Z,5.82
2022-07-31T21:24:07.622Z,5.22
2022-07-31T21:26:38.858Z,6.22
2022-07-31T21:29:12.575Z,7.57
2022-07-31T21:31:49.026Z,9.65
2022-07-31T21:34:20.279Z,6.22
2022-07-31T21:36:50.519Z,8.15
2022-07-31T21:39:25.418Z,7.28
2022-07-31T21:41:55.437Z,14.60
2022-07-31T21:44:24.957Z,9.20
2022-07-31T21:46:57.112Z,9.88
2022-07-31T21:49:35.250Z,8.48
2022-07-31T21:52:05.743Z,7.10
2022-07-31T21:54:37.635Z,7.40
2022-07-31T21:57:07.126Z,8.02
2022-07-31T21:59:36.306Z,7.25
2022-07-31T22:02:05.767Z,9.48
2022-07-31T22:04:35.182Z,8.65
2022-07-31T22:07:17.365Z,7.95
2022-07-31T22:09:48.703Z,14.13
2022-07-31T22:12:17.948Z,10.70
2022-07-31T22:14:47.534Z,10.82
2022-07-31T22:17:17.879Z,9.10
2022-07-31T22:19:47.675Z,9.43
2022-07-31T22:22:18.150Z,12.35
2022-07-31T22:24:50.204Z,12.38
2022-07-31T22:27:32.979Z,13.88
2022-07-31T22:30:02.895Z,9.38
2022-07-31T22:32:32.471Z,14.13
2022-07-31T22:35:01.956Z,14.35
2022-07-31T22:37:33.010Z,14.52
2022-07-31T22:40:05.075Z,10.85
2022-07-31T22:42:34.643Z,15.57
2022-07-31T22:45:04.449Z,14.35
2022-07-31T22:47:34.602Z,13.00
2022-07-31T22:50:05.262Z,12.73
2022-07-31T22:52:36.690Z,12.63
2022-07-31T22:55:08.691Z,11.55
2022-07-31T22:57:40.486Z,13.43
2022-07-31T23:00:11.877Z,15.68
2022-07-31T23:02:42.273Z,13.30
2022-07-31T23:05:12.350Z,14.20
2022-07-31T23:07:41.545Z,13.38
2022-07-31T23:10:12.959Z,14.30
2022-07-31T23:12:42.210Z,13.68
2022-07-31T23:15:11.696Z,14.95
2022-07-31T23:17:41.394Z,14.88
2022-07-31T23:20:11.495Z,15.07
2022-07-31T23:22:40.801Z,15.07
2022-07-31T23:25:14.918Z,18.05
2022-07-31T23:27:44.386Z,17.42
2022-07-31T23:30:14.329Z,21.38
2022-07-31T23:32:43.779Z,18.65
2022-07-31T23:35:13.049Z,20.50
2022-07-31T23:37:44.174Z,19.92
2022-07-31T23:40:16.351Z,18.55
2022-07-31T23:42:44.093Z,21.17
2022-07-31T23:45:18.095Z,18.80
2022-07-31T23:47:49.251Z,15.45
2022-07-31T23:50:21.990Z,14.63
2022-07-31T23:52:51.397Z,12.75
2022-07-31T23:55:23.593Z,13.77
2022-07-31T23:57:53.615Z,15.32
